Time;durP1;ratioP1;P1;durP2;ratioP2;P2;SDS_P1;SDS_P2;PMS_P1;PMS_P2;Temp;Humidity;BMP_temperature;BMP_pressure;BME280_temperature;BME280_humidity;BME280_pressure;Samples;Min_cycle;Max_cycle;Signal;HPM_P1;HPM_P2
2023/02/01 00:00:34;;;;;;;1.42;1.10;;;;;;;21.25;33.53;101585.47;5062155;28;20063;-71
2023/02/01 00:03:00;;;;;;;1.40;1.30;;;;;;;21.16;33.69;101582.97;5064730;28;20044;-70
2023/02/01 00:05:26;;;;;;;1.98;1.40;;;;;;;21.13;34.08;101571.72;5061596;28;20042;-71
2023/02/01 00:07:51;;;;;;;1.63;1.00;;;;;;;21.14;33.60;101572.53;5063217;28;20047;-70
2023/02/01 00:10:17;;;;;;;1.23;1.10;;;;;;;21.15;33.58;101571.53;5066054;28;20422;-71
2023/02/01 00:12:43;;;;;;;1.63;1.05;;;;;;;21.13;33.65;101577.00;5067960;28;20063;-71
2023/02/01 00:15:09;;;;;;;1.15;1.00;;;;;;;21.04;33.82;101562.16;5061857;28;20165;-71
2023/02/01 00:17:35;;;;;;;1.70;1.45;;;;;;;21.10;33.90;101564.13;5060097;28;20045;-70
2023/02/01 00:20:00;;;;;;;1.48;1.20;;;;;;;21.14;33.60;101556.66;5063344;28;20044;-71
2023/02/01 00:22:26;;;;;;;1.58;1.38;;;;;;;21.09;33.91;101559.00;5062775;28;20041;-71
2023/02/01 00:24:51;;;;;;;1.35;1.08;;;;;;;21.03;34.08;101559.69;5062924;28;20545;-71
2023/02/01 00:27:20;;;;;;;1.95;1.35;;;;;;;21.07;33.64;101564.47;5063379;28;20044;-71
2023/02/01 00:29:45;;;;;;;1.27;1.17;;;;;;;21.00;33.83;101563.47;5060912;28;20085;-71
2023/02/01 00:32:11;;;;;;;1.20;1.10;;;;;;;21.07;33.81;101558.34;5064340;28;20724;-71
2023/02/01 00:34:36;;;;;;;1.92;1.23;;;;;;;20.97;33.88;101558.53;5061675;28;20114;-71
2023/02/01 00:37:02;;;;;;;1.85;1.30;;;;;;;21.05;33.70;101555.88;5066809;28;20064;-70
2023/02/01 00:39:27;;;;;;;1.17;1.02;;;;;;;21.04;33.90;101553.41;5057022;28;20048;-71
2023/02/01 00:41:53;;;;;;;1.67;1.40;;;;;;;21.05;33.89;101566.47;5052307;28;20029;-71
2023/02/01 00:44:19;;;;;;;1.05;1.00;;;;;;;21.01;33.87;101549.25;5057392;28;20123;-71
2023/02/01 00:46:45;;;;;;;0.85;0.77;;;;;;;20.96;34.07;101556.03;5059900;28;20044;-70
2023/02/01 00:49:10;;;;;;;1.10;0.95;;;;;;;20.94;33.92;101552.75;5056843;28;20040;-71
2023/02/01 00:51:36;;;;;;;1.55;1.35;;;;;;;21.04;33.86;101561.34;5056059;28;20036;-70
2023/02/01 00:54:03;;;;;;;1.67;1.20;;;;;;;20.95;33.86;101557.03;5054275;28;20797;-70
2023/02/01 00:56:28;;;;;;;1.23;1.10;;;;;;;21.00;33.98;101560.81;5060148;28;20063;-71
2023/02/01 00:58:55;;;;;;;1.30;1.17;;;;;;;20.95;34.14;101544.63;5060625;28;20036;-71
2023/02/01 01:01:22;;;;;;;1.13;0.95;;;;;;;21.01;34.05;101559.03;5060979;28;20055;-70
2023/02/01 01:04:06;;;;;;;2.10;1.30;;;;;;;20.85;33.94;101541.38;5073042;28;20147;-70
2023/02/01 01:06:33;;;;;;;1.33;1.00;;;;;;;20.95;33.97;101541.16;5058958;28;20045;-70
2023/02/01 01:09:02;;;;;;;1.95;1.30;;;;;;;21.00;33.87;101539.66;5066406;28;20732;-71
2023/02/01 01:11:31;;;;;;;1.45;1.30;;;;;;;20.96;33.98;101533.03;5064214;28;20048;-70
2023/02/01 01:13:58;;;;;;;1.55;1.20;;;;;;;20.98;34.05;101541.63;5054462;28;20100;-71
2023/02/01 01:16:26;;;;;;;1.40;1.30;;;;;;;20.93;34.02;101532.56;5058911;28;20067;-71
2023/02/01 01:18:53;;;;;;;1.30;1.20;;;;;;;20.93;33.88;101535.22;5059045;28;20047;-70
2023/02/01 01:21:19;;;;;;;1.98;1.23;;;;;;;20.91;33.96;101524.78;5062864;28;20033;-71
2023/02/01 01:23:45;;;;;;;1.98;1.27;;;;;;;20.95;33.87;101510.22;5058748;28;20820;-71
2023/02/01 01:26:17;;;;;;;1.13;0.93;;;;;;;20.95;34.08;101525.28;5059582;28;20478;-71
2023/02/01 01:28:43;;;;;;;1.23;0.80;;;;;;;20.91;33.87;101508.09;5056280;28;20124;-71
2023/02/01 01:31:13;;;;;;;1.55;0.88;;;;;;;21.02;33.79;101513.03;5062868;28;20044;-71
2023/02/01 01:33:39;;;;;;;0.90;0.85;;;;;;;20.96;33.81;101513.69;5076042;28;20633;-71
2023/02/01 01:36:10;;;;;;;1.45;1.30;;;;;;;20.92;34.00;101515.03;5063452;28;20098;-70
2023/02/01 01:38:37;;;;;;;1.60;1.20;;;;;;;20.94;33.85;101502.44;5061527;28;20386;-70
2023/02/01 01:41:03;;;;;;;1.25;1.10;;;;;;;20.97;33.81;101504.75;5055974;28;20036;-71
2023/02/01 01:43:51;;;;;;;1.25;1.00;;;;;;;20.91;33.88;101498.31;5055795;28;20474;-70
2023/02/01 01:46:20;;;;;;;2.05;1.30;;;;;;;20.90;33.95;101506.44;5059585;28;20032;-70
2023/02/01 01:48:49;;;;;;;1.88;1.38;;;;;;;20.81;34.22;101493.22;5058270;28;20624;-71
2023/02/01 01:51:19;;;;;;;2.20;1.23;;;;;;;20.78;34.23;101482.13;5065894;28;20028;-71
2023/02/01 01:53:58;;;;;;;1.50;1.20;;;;;;;20.92;33.95;101484.09;5057170;28;20037;-70
2023/02/01 01:56:25;;;;;;;0.77;0.60;;;;;;;20.89;33.94;101479.13;5058732;28;20061;-71
2023/02/01 01:58:52;;;;;;;1.25;0.82;;;;;;;20.89;34.12;101475.66;5059145;28;20097;-71
2023/02/01 02:01:18;;;;;;;1.50;1.10;;;;;;;20.89;34.12;101473.00;5058567;28;20418;-71
2023/02/01 02:03:45;;;;;;;1.45;0.95;;;;;;;20.79;34.10;101473.19;5056856;28;20044;-71
2023/02/01 02:06:19;;;;;;;1.75;1.30;;;;;;;20.89;34.10;101476.50;5057001;28;20126;-70
2023/02/01 02:08:45;;;;;;;2.30;1.55;;;;;;;20.87;34.14;101472.38;5054314;28;20187;-70
2023/02/01 02:11:15;;;;;;;1.20;1.10;;;;;;;20.84;33.97;101460.31;5059149;28;22058;-71
2023/02/01 02:13:45;;;;;;;1.23;1.10;;;;;;;20.97;33.82;101463.22;5018511;28;1107473;-71
2023/02/01 02:16:13;;;;;;;1.83;1.30;;;;;;;20.79;34.09;101458.16;5058400;28;20078;-70
2023/02/01 02:19:07;;;;;;;1.42;1.30;;;;;;;20.81;34.22;101461.44;5055222;28;20043;-71
2023/02/01 02:21:35;;;;;;;1.35;1.00;;;;;;;20.80;34.21;101462.44;5066673;28;20036;-70
2023/02/01 02:24:28;;;;;;;1.00;0.85;;;;;;;20.79;34.36;101459.97;5059781;28;20040;-70
2023/02/01 02:27:03;;;;;;;1.42;1.02;;;;;;;20.79;34.27;101460.78;5061600;28;20422;-71
2023/02/01 02:29:54;;;;;;;1.25;1.05;;;;;;;20.81;34.31;101442.09;5072291;28;20097;-70
2023/02/01 02:32:28;;;;;;;1.75;1.27;;;;;;;20.81;34.16;101445.56;5058944;28;20363;-71
2023/02/01 02:35:01;;;;;;;1.05;0.90;;;;;;;20.76;34.36;101444.44;5061559;28;20191;-71
2023/02/01 02:37:52;;;;;;;1.48;1.23;;;;;;;20.82;34.14;101433.16;5062078;28;20066;-70
2023/02/01 02:40:32;;;;;;;2.00;0.95;;;;;;;20.80;34.22;101419.25;5069908;28;20060;-71
2023/02/01 02:48:47;;;;;;;2.13;0.95;;;;;;;20.76;34.13;101404.72;5061379;28;20052;-71
2023/02/01 02:54:48;;;;;;;1.63;1.08;;;;;;;20.72;34.46;101400.78;5075842;28;20036;-70
2023/02/01 03:05:53;;;;;;;0.80;0.80;;;;;;;20.74;34.14;101396.97;5056029;28;20055;-70
2023/02/01 03:08:25;;;;;;;0.90;0.90;;;;;;;20.68;34.33;101396.84;5049257;28;20036;-71
2023/02/01 03:10:54;;;;;;;1.30;0.90;;;;;;;20.77;34.09;101395.78;5048878;28;20349;-71
2023/02/01 03:13:40;;;;;;;1.60;1.00;;;;;;;20.69;34.35;101396.66;5056382;28;20083;-71
2023/02/01 03:16:14;;;;;;;1.75;1.15;;;;;;;20.67;34.35;101387.25;5047879;28;20072;-71
2023/02/01 03:18:45;;;;;;;1.05;0.90;;;;;;;20.68;34.27;101394.19;5056491;28;20085;-71
2023/02/01 03:21:15;;;;;;;1.40;1.10;;;;;;;20.66;34.58;101391.72;5070433;28;20503;-71
2023/02/01 03:23:44;;;;;;;1.38;0.93;;;;;;;20.76;34.34;101396.78;5070089;28;20036;-71
2023/02/01 03:26:14;;;;;;;1.50;1.10;;;;;;;20.73;34.04;101383.91;5051906;28;20047;-71
2023/02/01 03:28:49;;;;;;;1.40;1.25;;;;;;;20.71;34.06;101368.19;5073185;28;20189;-71
2023/02/01 03:31:15;;;;;;;2.33;1.35;;;;;;;20.69;34.27;101364.09;5058701;28;20036;-71
2023/02/01 03:33:41;;;;;;;1.08;1.02;;;;;;;20.67;34.33;101360.78;5060204;28;20064;-71
2023/02/01 03:36:25;;;;;;;1.17;0.80;;;;;;;20.69;34.41;101358.78;5055975;28;20043;-71
2023/02/01 03:39:33;;;;;;;1.05;0.95;;;;;;;20.76;34.30;101357.09;5059187;28;20040;-70
2023/02/01 03:42:09;;;;;;;1.88;1.30;;;;;;;20.63;34.20;101357.63;5053986;28;20052;-70
2023/02/01 03:44:46;;;;;;;1.35;1.08;;;;;;;20.70;34.43;101355.13;5055670;28;20495;-70
2023/02/01 03:47:19;;;;;;;1.08;0.93;;;;;;;20.65;34.26;101353.03;5068672;28;20028;-70
2023/02/01 03:50:08;;;;;;;1.65;1.27;;;;;;;20.62;34.51;101345.41;5046133;28;20498;-70
2023/02/01 03:52:42;;;;;;;1.38;1.08;;;;;;;20.63;34.53;101348.88;5055631;28;20047;-70
2023/02/01 03:55:10;;;;;;;1.35;1.10;;;;;;;20.67;34.30;101355.50;5067472;28;20036;-70
2023/02/01 03:57:43;;;;;;;1.35;0.85;;;;;;;20.58;34.40;101345.94;5069393;28;20036;-70
2023/02/01 04:00:21;;;;;;;1.00;1.00;;;;;;;20.69;34.42;101340.25;5055435;28;20076;-70
2023/02/01 04:02:50;;;;;;;1.45;0.75;;;;;;;20.61;34.26;101338.47;5056782;28;20048;-70
2023/02/01 04:05:16;;;;;;;1.63;1.13;;;;;;;20.63;34.44;101362.09;5063827;28;20066;-70
2023/02/01 04:07:49;;;;;;;1.23;0.98;;;;;;;20.66;34.25;101344.09;5070472;28;20040;-70
2023/02/01 04:10:14;;;;;;;1.73;0.85;;;;;;;20.66;34.19;101346.72;5057470;28;20048;-70
2023/02/01 04:12:40;;;;;;;1.48;1.10;;;;;;;20.66;34.48;101349.38;5056778;28;20036;-70
2023/02/01 04:15:07;;;;;;;1.00;0.90;;;;;;;20.62;34.44;101337.47;5054691;28;20041;-70
2023/02/01 04:17:32;;;;;;;1.08;0.88;;;;;;;20.64;34.47;101337.28;5060674;28;20447;-70
2023/02/01 04:19:58;;;;;;;1.30;1.00;;;;;;;20.58;34.50;101362.63;5055230;28;20138;-70
2023/02/01 04:22:23;;;;;;;1.27;1.17;;;;;;;20.61;34.36;101348.22;5059608;28;20049;-70
2023/02/01 04:24:49;;;;;;;2.00;1.20;;;;;;;20.57;34.54;101339.81;5056288;28;20029;-70
2023/02/01 04:27:14;;;;;;;1.58;1.10;;;;;;;20.58;34.38;101340.63;5058460;28;20449;-70
2023/02/01 04:29:40;;;;;;;1.20;1.10;;;;;;;20.59;34.44;101343.09;5059294;28;20037;-70
2023/02/01 04:32:06;;;;;;;1.38;1.23;;;;;;;20.60;34.39;101344.75;5056061;28;20124;-70
2023/02/01 04:34:31;;;;;;;2.15;1.20;;;;;;;20.57;34.54;101336.34;5055896;28;20481;-70
2023/02/01 04:36:57;;;;;;;0.80;0.80;;;;;;;20.60;34.45;101330.69;5057141;28;20044;-70
2023/02/01 04:39:22;;;;;;;1.40;1.30;;;;;;;20.56;34.46;101354.03;5056851;28;20040;-70
2023/02/01 04:41:48;;;;;;;1.00;0.88;;;;;;;20.48;34.60;101333.75;5053063;28;20555;-70
2023/02/01 04:44:16;;;;;;;1.65;1.25;;;;;;;20.56;34.49;101345.28;5061092;28;20051;-70
2023/02/01 04:46:42;;;;;;;1.58;1.00;;;;;;;20.52;34.48;101334.22;5057587;28;20481;-70
2023/02/01 04:49:12;;;;;;;1.05;0.95;;;;;;;20.61;34.28;101342.94;5058640;28;20135;-70
2023/02/01 04:51:37;;;;;;;1.33;0.93;;;;;;;20.58;34.30;101338.81;5060963;28;20032;-70
2023/02/01 04:54:03;;;;;;;1.35;1.00;;;;;;;20.59;34.45;101344.94;5055209;28;20039;-70
2023/02/01 04:56:29;;;;;;;1.80;1.20;;;;;;;20.57;34.34;101339.81;5061763;28;20422;-70
2023/02/01 04:58:55;;;;;;;1.25;0.80;;;;;;;20.58;34.35;101349.41;5061819;28;20033;-70
2023/02/01 05:01:21;;;;;;;0.80;0.80;;;;;;;20.59;34.39;101334.34;5058368;28;20041;-70
2023/02/01 05:03:47;;;;;;;1.05;0.90;;;;;;;20.55;34.39;101331.22;5061731;28;20059;-70
2023/02/01 05:06:12;;;;;;;1.48;0.93;;;;;;;20.61;34.21;101327.06;5058390;28;20052;-70
2023/02/01 05:08:38;;;;;;;1.02;0.93;;;;;;;20.47;34.68;101323.34;5060691;28;20123;-70
2023/02/01 05:11:03;;;;;;;1.25;0.95;;;;;;;20.55;34.42;101328.56;5059598;28;20032;-70
2023/02/01 05:16:14;;;;;;;1.40;0.88;;;;;;;20.58;34.42;101327.41;5056266;28;20047;-70
2023/02/01 05:18:39;;;;;;;1.52;1.20;;;;;;;20.52;34.50;101327.09;5057169;28;20037;-70
2023/02/01 05:21:05;;;;;;;1.90;1.15;;;;;;;20.63;34.22;101331.16;5060846;28;20398;-70
2023/02/01 05:23:30;;;;;;;0.95;0.85;;;;;;;20.58;34.41;101324.75;5060801;28;20036;-70
2023/02/01 05:26:00;;;;;;;1.98;1.33;;;;;;;20.61;34.24;101340.28;5060407;28;20123;-70
2023/02/01 05:28:27;;;;;;;1.25;0.93;;;;;;;20.52;34.51;101332.41;5059822;28;20136;-70
2023/02/01 05:30:53;;;;;;;1.42;1.08;;;;;;;20.49;34.45;101327.44;5056026;28;20030;-70
2023/02/01 05:33:18;;;;;;;1.38;1.20;;;;;;;20.58;34.40;101333.53;5056539;28;20497;-70
2023/02/01 05:35:43;;;;;;;1.00;0.85;;;;;;;20.59;34.39;101347.56;5060137;28;20043;-70
2023/02/01 05:38:09;;;;;;;1.40;1.10;;;;;;;20.52;34.40;101355.38;5057059;28;20511;-70
2023/02/01 05:40:34;;;;;;;1.00;0.90;;;;;;;20.46;34.56;101345.47;5057321;28;20036;-70
2023/02/01 05:43:00;;;;;;;1.52;1.15;;;;;;;20.50;34.29;101337.03;5055916;28;20750;-70
2023/02/01 05:45:25;;;;;;;1.65;1.10;;;;;;;20.57;34.50;101360.16;5058503;28;20059;-70
2023/02/01 05:47:51;;;;;;;1.02;0.93;;;;;;;20.56;34.39;101369.09;5060021;28;20033;-70
2023/02/01 05:50:17;;;;;;;1.40;0.90;;;;;;;20.48;34.39;101376.06;5058635;28;20028;-70
2023/02/01 05:52:42;;;;;;;1.35;0.98;;;;;;;20.54;34.26;101358.69;5056707;28;20400;-70
2023/02/01 05:55:08;;;;;;;1.17;0.90;;;;;;;20.50;34.38;101355.56;5056421;28;20048;-70
2023/02/01 05:57:33;;;;;;;0.90;0.88;;;;;;;20.49;34.30;101353.09;5056383;28;20061;-70
2023/02/01 05:59:59;;;;;;;1.35;1.10;;;;;;;20.49;34.49;101353.91;5054772;28;20037;-70
2023/02/01 06:02:24;;;;;;;0.90;0.90;;;;;;;20.44;34.48;101372.09;5059356;28;20681;-69
2023/02/01 06:04:50;;;;;;;1.15;1.05;;;;;;;20.42;34.40;101365.31;5058208;28;20047;-70
2023/02/01 06:07:17;;;;;;;2.15;1.08;;;;;;;20.44;34.46;101352.75;5059485;28;20037;-70
2023/02/01 06:09:42;;;;;;;1.02;0.90;;;;;;;20.47;34.52;101361.19;5057802;28;20051;-70
2023/02/01 06:12:08;;;;;;;1.42;1.27;;;;;;;20.38;34.56;101351.59;5059062;28;20045;-70
2023/02/01 06:14:33;;;;;;;1.23;1.05;;;;;;;20.44;34.53;101355.41;5057931;28;20071;-70
2023/02/01 06:16:59;;;;;;;1.08;0.85;;;;;;;20.46;34.37;101364.81;5060600;28;20047;-70
2023/02/01 06:19:25;;;;;;;1.17;1.05;;;;;;;20.46;34.39;101356.03;5059523;28;20044;-70
2023/02/01 06:21:51;;;;;;;1.15;1.02;;;;;;;20.51;34.30;101353.72;5057142;28;20039;-70
2023/02/01 06:24:16;;;;;;;0.98;0.93;;;;;;;20.45;34.52;101354.41;5057279;28;22011;-70
2023/02/01 06:26:42;;;;;;;1.25;1.10;;;;;;;20.45;34.52;101349.94;5057855;28;20032;-70
2023/02/01 06:29:10;;;;;;;1.17;1.00;;;;;;;20.52;34.44;101363.31;5055350;28;20502;-70
2023/02/01 06:31:35;;;;;;;0.70;0.70;;;;;;;20.43;34.77;101359.03;5057476;28;20030;-70
2023/02/01 06:34:02;;;;;;;1.27;1.10;;;;;;;20.40;34.65;101354.88;5057244;28;20518;-70
2023/02/01 06:36:28;;;;;;;1.00;0.90;;;;;;;20.45;34.68;101359.69;5059938;28;20056;-70
2023/02/01 06:38:56;;;;;;;1.88;1.35;;;;;;;20.49;34.62;101363.66;5057010;28;20044;-70
2023/02/01 06:41:22;;;;;;;1.30;1.20;;;;;;;20.38;34.67;101348.94;5060231;28;20514;-70
2023/02/01 06:43:48;;;;;;;1.08;0.90;;;;;;;20.44;34.82;101364.16;5061972;28;20068;-70
2023/02/01 06:46:13;;;;;;;1.15;0.98;;;;;;;20.46;34.63;101374.56;5059819;28;20051;-70
2023/02/01 06:48:39;;;;;;;0.98;0.90;;;;;;;20.40;34.80;101376.06;5055626;28;20063;-70
2023/02/01 06:51:05;;;;;;;1.20;1.10;;;;;;;20.41;34.80;101385.66;5060619;28;20043;-70
2023/02/01 06:53:31;;;;;;;1.25;0.93;;;;;;;20.52;34.60;101371.25;5057983;28;20465;-70
2023/02/01 06:55:59;;;;;;;1.10;1.00;;;;;;;20.67;34.38;101385.44;5059303;28;20543;-69
2023/02/01 06:58:31;;;;;;;0.90;0.90;;;;;;;21.91;32.72;101364.09;5053559;28;20039;-70
2023/02/01 07:00:57;;;;;;;0.77;0.70;;;;;;;23.00;30.85;101373.16;5056853;28;20173;-70
2023/02/01 07:03:22;;;;;;;0.73;0.63;;;;;;;23.42;30.43;101392.78;5053856;28;20032;-70
2023/02/01 07:05:48;;;;;;;2.13;1.30;;;;;;;23.33;30.56;101399.22;5059497;28;20051;-70
2023/02/01 07:08:13;;;;;;;1.10;1.00;;;;;;;23.08;31.18;101388.13;5053408;28;20045;-70
2023/02/01 07:10:39;;;;;;;1.02;0.73;;;;;;;22.77;31.14;101391.81;5057315;28;20036;-70
2023/02/01 07:13:04;;;;;;;1.15;1.02;;;;;;;22.56;31.69;101383.78;5055247;28;20063;-70
2023/02/01 07:15:30;;;;;;;0.88;0.88;;;;;;;22.39;32.08;101382.34;5061162;28;20044;-70
2023/02/01 07:17:56;;;;;;;1.13;1.05;;;;;;;22.15;32.69;101391.41;5067439;28;20049;-71
2023/02/01 07:20:22;;;;;;;1.13;0.77;;;;;;;21.97;32.63;101397.00;5061818;28;20036;-71
2023/02/01 07:22:47;;;;;;;1.02;0.88;;;;;;;21.74;33.32;101398.88;5056861;28;20603;-71
2023/02/01 07:25:13;;;;;;;1.35;1.08;;;;;;;21.52;33.80;101396.03;5058841;28;20033;-70
2023/02/01 07:27:38;;;;;;;0.88;0.77;;;;;;;21.31;34.17;101394.03;5058500;28;20123;-70
2023/02/01 07:30:05;;;;;;;1.33;1.08;;;;;;;21.38;34.01;101373.81;5059372;28;20040;-70
2023/02/01 07:32:31;;;;;;;1.85;1.17;;;;;;;21.25;34.28;101392.09;5057464;28;20479;-71
2023/02/01 07:34:57;;;;;;;1.40;0.82;;;;;;;21.27;34.19;101382.16;5058247;28;20055;-71
2023/02/01 07:37:23;;;;;;;1.42;1.02;;;;;;;21.26;34.06;101396.41;5058346;28;20036;-71
2023/02/01 07:39:52;;;;;;;1.33;1.08;;;;;;;21.34;33.86;101376.97;5054226;28;21787;-70
2023/02/01 07:42:18;;;;;;;1.60;1.17;;;;;;;21.32;34.05;101381.63;5051227;28;20055;-72
2023/02/01 07:44:43;;;;;;;1.23;1.13;;;;;;;21.30;33.89;101386.28;5059901;28;20457;-71
2023/02/01 07:47:09;;;;;;;1.35;0.95;;;;;;;21.24;33.90;101385.16;5051867;28;20048;-71
2023/02/01 07:49:35;;;;;;;1.60;1.20;;;;;;;21.25;33.91;101385.97;5054654;28;20044;-71
2023/02/01 07:52:00;;;;;;;1.58;1.23;;;;;;;21.25;33.93;101391.28;5060232;28;20529;-71
2023/02/01 07:54:26;;;;;;;1.55;1.13;;;;;;;21.22;33.91;101395.06;5053228;28;20049;-71
2023/02/01 07:56:51;;;;;;;2.05;1.55;;;;;;;20.76;34.71;101402.91;5053217;28;20028;-73
2023/02/01 07:59:17;;;;;;;2.03;1.40;;;;;;;21.11;34.48;101398.09;5057577;28;20041;-73
2023/02/01 08:01:43;;;;;;;1.35;1.20;;;;;;;21.07;34.39;101404.75;5054464;28;20064;-73
2023/02/01 08:04:11;;;;;;;1.50;1.25;;;;;;;21.11;34.24;101400.75;5051243;28;20081;-74
2023/02/01 08:06:38;;;;;;;1.70;1.08;;;;;;;21.18;34.08;101408.81;5054007;28;20652;-73
2023/02/01 08:09:05;;;;;;;1.30;1.10;;;;;;;21.08;34.30;101401.09;5053665;28;20047;-73
2023/02/01 08:11:31;;;;;;;1.30;1.20;;;;;;;21.05;34.46;101401.47;5055910;28;20024;-73
2023/02/01 08:13:57;;;;;;;2.00;1.42;;;;;;;21.02;34.38;101399.16;5050154;28;20486;-73
2023/02/01 08:16:23;;;;;;;4.43;1.17;;;;;;;20.98;34.35;101403.13;5056288;28;20553;-72
2023/02/01 08:18:49;;;;;;;1.40;0.93;;;;;;;21.00;34.48;101404.59;5057999;28;20462;-72
2023/02/01 08:21:18;;;;;;;1.55;1.10;;;;;;;20.92;34.34;101393.25;5060226;28;20128;-72
2023/02/01 08:23:44;;;;;;;1.52;1.00;;;;;;;20.98;34.44;101390.72;5060346;28;20482;-72
2023/02/01 08:26:16;;;;;;;1.10;1.05;;;;;;;21.01;34.34;101385.09;5061603;28;20123;-71
2023/02/01 08:28:44;;;;;;;0.85;0.80;;;;;;;20.94;34.58;101385.94;5058205;28;20485;-70
2023/02/01 08:31:14;;;;;;;1.88;0.93;;;;;;;20.95;34.57;101409.59;5057194;28;20033;-70
2023/02/01 08:33:40;;;;;;;;;;;;;;;20.99;34.27;101392.38;5059179;28;20059;-67
2023/02/01 08:36:07;;;;;;;1.42;1.00;;;;;;;20.99;34.50;101391.53;5060303;28;19920;-69
2023/02/01 08:38:36;;;;;;;1.35;1.17;;;;;;;21.01;34.42;101394.88;5059016;28;20474;-70
2023/02/01 08:41:11;;;;;;;1.33;1.23;;;;;;;20.91;34.40;101397.72;5057397;28;20081;-71
2023/02/01 08:43:36;;;;;;;1.75;1.30;;;;;;;20.91;34.51;101397.72;5058173;28;20036;-70
2023/02/01 08:46:03;;;;;;;1.58;1.23;;;;;;;20.93;34.44;101390.41;5060316;28;20397;-73
2023/02/01 08:48:30;;;;;;;1.27;1.10;;;;;;;21.05;34.38;101383.75;5064066;28;20167;-72
2023/02/01 08:50:56;;;;;;;1.13;1.00;;;;;;;21.13;34.27;101382.88;5058766;28;20036;-73
2023/02/01 08:53:22;;;;;;;1.20;0.77;;;;;;;21.11;34.07;101377.75;5057535;28;20045;-72
2023/02/01 08:55:48;;;;;;;1.58;1.20;;;;;;;21.22;33.95;101375.72;5063063;28;20494;-72
2023/02/01 08:58:16;;;;;;;1.17;1.08;;;;;;;21.29;34.10;101377.50;5060315;28;20036;-72
2023/02/01 09:00:44;;;;;;;1.35;1.02;;;;;;;21.15;34.18;101380.03;5057092;28;20043;-74
2023/02/01 09:03:10;;;;;;;1.00;0.90;;;;;;;21.13;34.10;101364.31;5061564;28;20115;-72
2023/02/01 09:05:36;;;;;;;1.60;1.08;;;;;;;20.90;34.63;101359.00;5054376;28;20358;-71
2023/02/01 09:08:01;;;;;;;1.95;1.23;;;;;;;21.14;34.26;101358.03;5058477;28;20047;-71
2023/02/01 09:10:27;;;;;;;1.77;1.08;;;;;;;20.88;34.80;101353.06;5057006;28;20047;-71
2023/02/01 09:12:52;;;;;;;1.48;0.98;;;;;;;20.97;34.41;101352.00;5057825;28;20039;-72
2023/02/01 09:15:18;;;;;;;1.20;0.98;;;;;;;20.92;34.37;101341.13;5058148;28;20056;-72
2023/02/01 09:17:44;;;;;;;3.17;0.90;;;;;;;20.94;34.29;101356.84;5058482;28;20444;-73
2023/02/01 09:20:10;;;;;;;2.08;1.10;;;;;;;20.96;34.46;101349.53;5056813;28;20044;-71
2023/02/01 09:22:35;;;;;;;1.25;1.00;;;;;;;20.93;34.21;101355.19;5056065;28;20131;-70
2023/02/01 09:25:01;;;;;;;1.52;1.25;;;;;;;20.92;34.20;101330.53;5060351;28;20033;-73
2023/02/01 09:27:26;;;;;;;1.52;1.30;;;;;;;20.93;34.32;101340.13;5056096;28;20048;-73
2023/02/01 09:29:52;;;;;;;1.50;1.00;;;;;;;21.06;33.93;101345.69;5055549;28;20044;-72
2023/02/01 09:32:22;;;;;;;1.92;1.15;;;;;;;21.03;34.20;101343.38;5055968;28;20116;-75
2023/02/01 09:34:49;;;;;;;1.75;1.17;;;;;;;20.92;34.23;101341.13;5071835;28;20083;-70
2023/02/01 09:37:15;;;;;;;1.33;1.23;;;;;;;20.84;34.41;101325.31;5058245;28;20040;-70
2023/02/01 09:39:42;;;;;;;3.60;1.70;;;;;;;20.43;35.13;101317.53;5055870;28;20056;-69
2023/02/01 09:42:29;;;;;;;2.47;1.20;;;;;;;20.80;34.43;101310.75;5059706;28;20033;-70
2023/02/01 09:44:57;;;;;;;1.77;1.17;;;;;;;20.83;34.65;101315.72;5057088;28;20047;-70
2023/02/01 09:47:23;;;;;;;1.63;1.20;;;;;;;20.75;34.62;101323.69;5055045;28;20135;-69
2023/02/01 09:49:55;;;;;;;2.25;1.20;;;;;;;21.00;34.22;101325.19;5055429;28;20040;-70
2023/02/01 09:52:30;;;;;;;1.83;1.17;;;;;;;21.10;34.01;101315.19;5048719;28;20130;-71
2023/02/01 09:55:02;;;;;;;1.58;1.35;;;;;;;21.49;33.41;101314.25;5053902;28;20521;-72
2023/02/01 09:57:55;;;;;;;3.42;1.52;;;;;;;20.79;34.14;101309.09;5052931;28;20037;-70
2023/02/01 10:00:28;;;;;;;2.28;1.50;;;;;;;20.08;35.34;101291.50;5047934;28;20036;-71
2023/02/01 10:02:55;;;;;;;3.35;1.50;;;;;;;20.00;35.59;101296.84;5052566;28;20040;-72
2023/02/01 10:05:54;;;;;;;2.50;1.55;;;;;;;19.81;35.91;101279.53;5055835;28;20032;-72
2023/02/01 10:08:33;;;;;;;2.55;1.27;;;;;;;19.77;35.83;101283.53;5057560;28;20051;-73
2023/02/01 10:11:23;;;;;;;1.73;1.30;;;;;;;20.07;35.31;101274.00;5052827;28;20148;-73
2023/02/01 10:14:02;;;;;;;2.45;1.60;;;;;;;20.48;34.42;101274.72;5054623;28;20056;-73
2023/02/01 10:16:55;;;;;;;2.00;1.65;;;;;;;20.92;33.63;101268.81;5059219;28;20071;-73
2023/02/01 10:19:39;;;;;;;2.25;1.48;;;;;;;21.22;33.16;101264.47;5053856;28;20040;-73
2023/02/01 10:22:20;;;;;;;1.90;1.30;;;;;;;21.04;33.48;101260.31;5056629;28;20133;-73
2023/02/01 10:24:58;;;;;;;2.03;1.08;;;;;;;20.95;33.75;101257.88;5055190;28;20109;-73
2023/02/01 10:27:36;;;;;;;2.22;1.40;;;;;;;20.72;33.93;101265.81;5073165;28;20044;-72
2023/02/01 10:30:30;;;;;;;1.98;1.48;;;;;;;20.41;34.49;101268.44;5058124;28;20044;-72
2023/02/01 10:33:14;;;;;;;3.05;1.58;;;;;;;20.35;34.56;101254.06;5048668;28;20051;-73
2023/02/01 10:35:41;;;;;;;3.28;1.60;;;;;;;19.92;35.27;101268.59;5054617;28;20532;-73
2023/02/01 10:38:23;;;;;;;2.20;1.45;;;;;;;19.80;35.55;101262.03;5049136;28;20063;-72
2023/02/01 10:40:51;;;;;;;2.15;1.50;;;;;;;20.10;35.08;101241.94;5056424;28;20043;-74
2023/02/01 10:43:16;;;;;;;2.30;1.50;;;;;;;20.06;35.20;101238.00;5053254;28;20382;-74
2023/02/01 10:45:42;;;;;;;1.13;0.93;;;;;;;19.87;35.75;101229.47;5054443;28;20036;-73
2023/02/01 10:48:08;;;;;;;1.35;1.20;;;;;;;19.78;35.70;101246.34;5054612;28;20037;-73
2023/02/01 10:50:47;;;;;;;2.83;1.42;;;;;;;19.69;35.71;101260.56;5054635;28;20074;-73
2023/02/01 10:53:32;;;;;;;2.15;1.42;;;;;;;19.72;35.69;101239.09;5055529;28;20037;-70
2023/02/01 10:55:57;;;;;;;2.78;1.50;;;;;;;19.54;35.88;101243.75;5054523;28;20047;-72
2023/02/01 10:58:31;;;;;;;2.75;1.60;;;;;;;19.65;35.71;101230.19;5074405;28;20177;-72
2023/02/01 11:01:03;;;;;;;2.92;1.23;;;;;;;20.15;34.99;101236.97;5056518;28;20048;-73
2023/02/01 11:03:37;;;;;;;1.80;1.30;;;;;;;20.73;33.90;101223.28;5055260;28;20129;-73
2023/02/01 11:06:29;;;;;;;1.35;1.15;;;;;;;21.10;33.08;101245.50;5051662;28;20775;-73
2023/02/01 11:08:58;;;;;;;1.55;1.25;;;;;;;21.32;32.72;101236.75;5041460;28;21119;-71
2023/02/01 11:11:24;;;;;;;1.63;1.23;;;;;;;21.02;33.04;101241.13;5054005;28;20036;-72
2023/02/01 11:13:59;;;;;;;2.53;1.58;;;;;;;21.06;32.89;101210.63;5057851;28;20041;-71
2023/02/01 11:16:37;;;;;;;1.67;1.40;;;;;;;20.69;33.84;101232.59;5056735;28;20028;-71
2023/02/01 11:19:03;;;;;;;1.67;1.30;;;;;;;20.58;33.90;101190.63;5055326;28;20693;-72
2023/02/01 11:21:29;;;;;;;3.13;1.52;;;;;;;20.19;34.59;101222.41;5055796;28;20036;-72
2023/02/01 11:24:00;;;;;;;1.73;1.10;;;;;;;20.00;34.92;101228.94;5056625;28;20434;-72
2023/02/01 11:26:28;;;;;;;2.38;1.00;;;;;;;19.95;35.02;101246.31;5055715;28;20122;-72
2023/02/01 11:29:01;;;;;;;2.50;1.27;;;;;;;19.85;35.30;101222.72;5057252;28;20066;-72
2023/02/01 11:31:27;;;;;;;1.90;1.42;;;;;;;19.79;35.33;101216.28;5051533;28;20037;-73
2023/02/01 11:34:15;;;;;;;1.60;1.25;;;;;;;19.70;35.54;101213.81;5056774;28;20384;-71
2023/02/01 11:36:44;;;;;;;2.40;1.40;;;;;;;19.67;35.64;101222.09;5053670;28;20667;-71
2023/02/01 11:39:18;;;;;;;2.28;1.50;;;;;;;19.73;35.61;101224.06;5060587;28;20121;-72
2023/02/01 11:42:16;;;;;;;1.55;1.30;;;;;;;20.05;35.25;101229.25;5050489;28;20024;-72
2023/02/01 11:44:43;;;;;;;1.95;1.27;;;;;;;20.89;33.75;101210.94;5056660;28;20119;-73
2023/02/01 11:47:28;;;;;;;0.93;0.90;;;;;;;21.08;33.20;101219.22;5057241;28;20470;-72
2023/02/01 11:49:57;;;;;;;2.25;1.38;;;;;;;21.17;33.10;101235.03;5054274;28;20560;-72
2023/02/01 11:52:41;;;;;;;1.58;1.23;;;;;;;21.21;33.16;101229.22;5055473;28;20502;-73
2023/02/01 11:55:32;;;;;;;1.50;1.08;;;;;;;21.26;32.96;101236.66;5054552;28;20068;-72